Time;durP1;ratioP1;P1;durP2;ratioP2;P2;SDS_P1;SDS_P2;PMS_P1;PMS_P2;Temp;Humidity;BMP_temperature;BMP_pressure;BME280_temperature;BME280_humidity;BME280_pressure;Samples;Min_cycle;Max_cycle;Signal;HPM_P1;HPM_P2
2022/01/09 00:02:14;;;;;;;4.27;2.10;;;4.40;99.70;;;;;;5011473;28;20477;-67
2022/01/09 00:04:40;;;;;;;4.30;1.90;;;4.40;99.70;;;;;;5011454;28;20445;-68
2022/01/09 00:07:07;;;;;;;5.47;2.20;;;4.40;99.70;;;;;;5011521;28;20452;-67
2022/01/09 00:09:33;;;;;;;4.47;2.00;;;4.40;99.70;;;;;;5014781;28;20484;-66
2022/01/09 00:12:00;;;;;;;3.90;2.07;;;4.40;99.70;;;;;;5018002;28;21020;-67
2022/01/09 00:14:27;;;;;;;3.47;2.07;;;4.50;99.70;;;;;;5017857;28;20442;-67
2022/01/09 00:16:53;;;;;;;4.10;2.00;;;4.40;99.70;;;;;;5018265;28;20520;-68
2022/01/09 00:19:21;;;;;;;3.90;1.90;;;4.40;99.70;;;;;;5017500;28;20446;-67
2022/01/09 00:21:48;;;;;;;4.13;2.00;;;4.50;99.70;;;;;;5017876;28;20472;-67
2022/01/09 00:24:15;;;;;;;5.00;1.97;;;4.50;99.70;;;;;;5017930;28;20970;-67
2022/01/09 00:26:41;;;;;;;3.63;1.90;;;4.40;99.70;;;;;;5017922;28;20448;-68
2022/01/09 00:29:10;;;;;;;3.77;2.00;;;4.40;99.70;;;;;;5017342;28;20484;-67
2022/01/09 00:31:36;;;;;;;3.67;2.10;;;4.40;99.70;;;;;;5017849;28;20469;-67
2022/01/09 00:34:03;;;;;;;3.80;2.03;;;4.50;99.70;;;;;;5017737;28;20451;-67
2022/01/09 00:36:31;;;;;;;3.03;1.77;;;4.50;99.70;;;;;;5017903;28;20842;-67
2022/01/09 00:38:58;;;;;;;3.47;1.90;;;4.40;99.70;;;;;;5016663;28;20206;-67
2022/01/09 00:41:25;;;;;;;4.10;1.80;;;4.40;99.70;;;;;;5017724;28;20469;-68
2022/01/09 00:43:52;;;;;;;2.90;1.60;;;4.50;99.70;;;;;;5017673;28;20445;-67
2022/01/09 00:46:19;;;;;;;3.53;1.80;;;4.50;99.70;;;;;;5017795;28;20454;-67
2022/01/09 00:48:45;;;;;;;2.90;1.80;;;4.40;99.70;;;;;;5017197;28;20938;-68
2022/01/09 00:51:12;;;;;;;3.20;1.70;;;4.40;99.70;;;;;;5017639;28;20461;-67
2022/01/09 00:53:40;;;;;;;3.67;1.97;;;4.30;99.70;;;;;;5017787;28;20453;-66
2022/01/09 00:56:07;;;;;;;3.30;1.70;;;4.20;99.70;;;;;;5017677;28;20519;-67
2022/01/09 00:58:33;;;;;;;3.53;1.60;;;4.30;99.70;;;;;;5017259;28;20452;-68
2022/01/09 01:01:00;;;;;;;3.20;1.90;;;4.30;99.70;;;;;;5017415;28;20543;-68
2022/01/09 01:03:27;;;;;;;3.97;1.80;;;4.20;99.70;;;;;;5017582;28;20437;-68
2022/01/09 01:05:53;;;;;;;4.80;1.80;;;4.20;99.70;;;;;;5017505;28;20449;-67
2022/01/09 01:08:20;;;;;;;2.33;1.40;;;4.30;99.70;;;;;;5017149;28;20496;-68
2022/01/09 01:10:48;;;;;;;3.57;1.60;;;4.30;99.70;;;;;;5017288;28;20927;-67
2022/01/09 01:13:15;;;;;;;3.40;1.70;;;4.20;99.70;;;;;;5017646;28;20800;-68
2022/01/09 01:15:41;;;;;;;4.10;1.90;;;4.20;99.70;;;;;;5017422;28;20445;-66
2022/01/09 01:18:08;;;;;;;4.17;2.10;;;4.30;99.70;;;;;;5016951;28;20442;-67
2022/01/09 01:20:35;;;;;;;5.77;1.93;;;4.30;99.70;;;;;;5015068;28;20452;-67
2022/01/09 01:23:01;;;;;;;3.77;1.77;;;4.30;99.70;;;;;;5014408;28;20477;-66
2022/01/09 01:25:28;;;;;;;3.10;1.60;;;4.40;99.70;;;;;;5014223;28;20824;-67
2022/01/09 01:27:56;;;;;;;3.40;1.60;;;4.30;99.70;;;;;;5013945;28;20451;-67
2022/01/09 01:30:23;;;;;;;3.43;1.70;;;4.30;99.70;;;;;;5014119;28;20488;-66
2022/01/09 01:32:50;;;;;;;3.77;1.60;;;4.40;99.70;;;;;;5014327;28;20468;-66
2022/01/09 01:35:17;;;;;;;2.40;1.30;;;4.40;99.70;;;;;;5014197;28;20457;-66
2022/01/09 01:37:43;;;;;;;2.60;1.40;;;4.40;99.70;;;;;;5013872;28;20499;-67
2022/01/09 01:40:13;;;;;;;3.37;1.67;;;4.40;99.70;;;;;;5012997;28;20448;-67
2022/01/09 01:42:40;;;;;;;4.97;1.90;;;4.50;99.70;;;;;;5013929;28;20835;-67
2022/01/09 01:45:09;;;;;;;3.00;1.40;;;4.50;99.70;;;;;;5013824;28;20445;-66
2022/01/09 01:47:36;;;;;;;2.83;1.50;;;4.50;99.70;;;;;;5013808;28;20449;-67
2022/01/09 01:50:04;;;;;;;3.60;1.70;;;4.40;99.70;;;;;;5013381;28;20481;-67
2022/01/09 01:52:36;;;;;;;3.33;1.50;;;4.40;99.70;;;;;;5013678;28;20472;-67
2022/01/09 01:55:05;;;;;;;3.47;1.60;;;4.40;99.70;;;;;;5013923;28;20490;-67
2022/01/09 01:57:32;;;;;;;2.97;1.50;;;4.40;99.70;;;;;;5013639;28;20450;-67
2022/01/09 01:59:59;;;;;;;2.67;1.53;;;4.40;99.70;;;;;;5013615;28;20437;-66
2022/01/09 02:02:27;;;;;;;3.07;1.63;;;4.40;99.70;;;;;;5013569;28;20481;-66
2022/01/09 02:04:54;;;;;;;2.90;1.53;;;4.40;99.70;;;;;;5013552;28;20445;-66
2022/01/09 02:07:21;;;;;;;2.83;1.70;;;4.40;99.70;;;;;;5013481;28;20503;-66
2022/01/09 02:09:47;;;;;;;2.60;1.40;;;4.40;99.70;;;;;;5013184;28;20477;-66
2022/01/09 02:12:14;;;;;;;2.87;1.60;;;4.50;99.70;;;;;;5013429;28;20473;-67
2022/01/09 02:14:44;;;;;;;2.63;1.53;;;4.50;99.70;;;;;;5013409;28;20449;-67
2022/01/09 02:17:11;;;;;;;2.40;1.40;;;4.50;99.70;;;;;;5013185;28;20942;-67
2022/01/09 02:19:39;;;;;;;2.80;1.63;;;4.40;99.70;;;;;;5012869;28;20457;-66
2022/01/09 02:22:11;;;;;;;3.10;1.50;;;4.40;99.70;;;;;;5013077;28;20468;-66
2022/01/09 02:24:37;;;;;;;3.03;1.43;;;4.50;99.70;;;;;;5013214;28;21028;-67
2022/01/09 02:27:05;;;;;;;2.70;1.50;;;4.50;99.70;;;;;;5013040;28;21001;-67
2022/01/09 02:29:32;;;;;;;2.40;1.17;;;4.50;99.70;;;;;;5012503;28;20450;-66
2022/01/09 02:31:58;;;;;;;3.27;1.30;;;4.50;99.70;;;;;;5012568;28;20476;-66
2022/01/09 02:34:25;;;;;;;2.50;1.20;;;4.60;99.70;;;;;;5013265;28;20446;-66
2022/01/09 02:36:52;;;;;;;1.80;1.00;;;4.70;99.70;;;;;;5012883;28;20472;-68
2022/01/09 02:39:20;;;;;;;2.67;1.10;;;4.70;99.70;;;;;;5011908;28;20453;-66
2022/01/09 02:41:46;;;;;;;2.00;1.00;;;4.80;99.70;;;;;;5012643;28;20465;-66
2022/01/09 02:44:13;;;;;;;1.80;1.00;;;4.90;99.70;;;;;;5012849;28;20825;-66
2022/01/09 02:46:54;;;;;;;1.90;1.00;;;4.80;99.70;;;;;;5012789;28;20464;-66
2022/01/09 02:49:21;;;;;;;1.80;1.00;;;4.80;99.70;;;;;;5012640;28;20537;-67
2022/01/09 02:51:47;;;;;;;1.83;1.00;;;4.80;99.70;;;;;;5012525;28;20468;-67
2022/01/09 02:56:56;;;;;;;1.90;1.00;;;4.90;99.70;;;;;;5011654;28;20430;-67
2022/01/09 02:59:23;;;;;;;2.00;1.00;;;4.90;99.70;;;;;;5012169;28;20448;-67
2022/01/09 03:01:50;;;;;;;1.90;1.00;;;4.90;99.70;;;;;;5074045;23;20493;-63
2022/01/09 03:04:16;;;;;;;2.30;0.97;;;4.90;99.70;;;;;;5011856;28;20883;-64
2022/01/09 03:06:43;;;;;;;1.80;0.90;;;4.90;99.70;;;;;;5012498;28;21153;-63
2022/01/09 03:09:10;;;;;;;2.20;1.40;;;4.90;99.70;;;;;;5012089;28;20441;-64
2022/01/09 03:11:38;;;;;;;1.90;1.00;;;4.80;99.70;;;;;;5012150;28;20485;-64
2022/01/09 03:14:07;;;;;;;1.90;1.00;;;4.80;99.70;;;;;;5012474;28;20441;-63
2022/01/09 03:16:34;;;;;;;3.60;1.20;;;4.80;99.70;;;;;;5012580;28;20484;-63
2022/01/09 03:19:00;;;;;;;2.00;1.10;;;4.80;99.70;;;;;;5011838;28;20449;-64
2022/01/09 03:21:27;;;;;;;2.10;1.03;;;4.90;99.70;;;;;;5012106;28;20476;-63
2022/01/09 03:23:54;;;;;;;1.93;1.00;;;5.00;99.70;;;;;;5012195;28;20445;-61
2022/01/09 03:26:20;;;;;;;1.80;1.00;;;5.00;99.70;;;;;;5012064;28;21013;-62
2022/01/09 03:28:47;;;;;;;2.10;1.10;;;4.90;99.70;;;;;;5011535;28;20449;-64
2022/01/09 03:31:15;;;;;;;2.77;1.00;;;4.90;99.70;;;;;;5011904;28;20480;-63
2022/01/09 03:33:42;;;;;;;1.87;1.00;;;4.90;99.70;;;;;;5012080;28;20901;-63
2022/01/09 03:36:08;;;;;;;1.83;1.00;;;4.90;99.70;;;;;;5011979;28;20441;-62
2022/01/09 03:38:35;;;;;;;1.90;1.00;;;5.00;99.70;;;;;;5010686;28;20480;-61
2022/01/09 03:41:02;;;;;;;1.80;1.00;;;5.00;99.70;;;;;;5011775;28;20500;-64
2022/01/09 03:43:29;;;;;;;2.00;1.00;;;5.10;99.70;;;;;;5011091;28;20453;-63
2022/01/09 03:45:55;;;;;;;2.13;1.00;;;5.20;99.70;;;;;;5011914;28;20874;-62
2022/01/09 03:48:23;;;;;;;2.10;1.00;;;5.20;99.70;;;;;;5011295;28;20456;-65
2022/01/09 03:50:52;;;;;;;2.03;1.00;;;5.20;99.70;;;;;;5011777;28;20535;-64
2022/01/09 03:53:19;;;;;;;2.40;1.00;;;5.20;99.70;;;;;;5011609;28;20473;-66
2022/01/09 03:55:45;;;;;;;2.10;1.10;;;5.20;99.70;;;;;;5011687;28;20484;-61
2022/01/09 03:58:12;;;;;;;2.33;1.00;;;5.20;99.70;;;;;;5011114;28;20449;-61
2022/01/09 04:00:39;;;;;;;1.90;1.00;;;5.20;99.70;;;;;;5011603;28;21009;-64
2022/01/09 04:03:06;;;;;;;1.80;0.90;;;5.20;99.70;;;;;;5011358;28;20473;-63
2022/01/09 04:05:34;;;;;;;2.17;0.90;;;5.20;99.70;;;;;;5011543;28;20453;-61
2022/01/09 04:08:01;;;;;;;1.80;0.90;;;5.20;99.70;;;;;;5011183;28;20861;-62
2022/01/09 04:10:29;;;;;;;2.07;1.00;;;5.20;99.70;;;;;;5011550;28;20504;-66
2022/01/09 04:12:59;;;;;;;1.90;1.00;;;5.10;99.70;;;;;;5011418;28;20527;-62
2022/01/09 04:15:27;;;;;;;2.13;1.10;;;5.30;99.70;;;;;;5011527;28;20460;-61
2022/01/09 04:17:55;;;;;;;2.30;1.10;;;5.20;99.70;;;;;;5011006;28;20528;-66
2022/01/09 04:20:22;;;;;;;2.10;1.00;;;5.30;99.70;;;;;;5011530;28;20473;-63
2022/01/09 04:22:51;;;;;;;2.20;1.00;;;5.20;99.70;;;;;;5011322;28;20465;-62
2022/01/09 04:25:19;;;;;;;1.83;1.00;;;5.30;99.70;;;;;;5011543;28;20449;-62
2022/01/09 04:27:46;;;;;;;2.00;1.00;;;5.20;99.70;;;;;;5010984;28;20453;-68
2022/01/09 04:30:13;;;;;;;2.20;1.00;;;5.20;99.70;;;;;;5011584;28;20997;-65
2022/01/09 04:32:40;;;;;;;3.03;1.10;;;5.20;99.70;;;;;;5011213;28;20461;-63
2022/01/09 04:35:08;;;;;;;2.57;1.00;;;5.10;99.70;;;;;;5011390;28;20456;-61
2022/01/09 04:37:36;;;;;;;2.20;1.10;;;5.20;99.70;;;;;;5011545;28;20441;-62
2022/01/09 04:40:06;;;;;;;1.90;1.00;;;5.10;99.70;;;;;;5010520;28;20445;-61
2022/01/09 04:42:39;;;;;;;2.17;1.20;;;5.10;99.70;;;;;;5011039;28;20470;-63
2022/01/09 04:45:08;;;;;;;2.00;1.10;;;5.10;99.70;;;;;;5011354;28;20835;-64
2022/01/09 04:47:34;;;;;;;2.07;1.20;;;5.10;99.70;;;;;;5011326;28;20828;-62
2022/01/09 04:50:02;;;;;;;2.00;1.10;;;5.10;99.70;;;;;;5010724;28;20453;-62
2022/01/09 04:52:33;;;;;;;2.10;1.20;;;5.00;99.70;;;;;;5011446;28;20473;-62
2022/01/09 04:55:00;;;;;;;2.10;1.20;;;5.10;99.70;;;;;;5012250;28;20449;-63
2022/01/09 04:57:28;;;;;;;2.73;1.20;;;5.10;99.70;;;;;;5015076;28;20938;-65
2022/01/09 04:59:54;;;;;;;2.30;1.30;;;5.00;99.70;;;;;;5014377;28;20464;-66
2022/01/09 05:02:21;;;;;;;2.67;1.20;;;5.10;99.70;;;;;;5014570;28;20477;-63
2022/01/09 05:04:48;;;;;;;2.20;1.20;;;5.00;99.70;;;;;;5014482;28;20514;-60
2022/01/09 05:07:14;;;;;;;1.90;1.00;;;5.00;99.70;;;;;;5014537;28;20798;-60
2022/01/09 05:09:41;;;;;;;1.80;0.97;;;4.90;99.70;;;;;;5014056;28;20967;-62
2022/01/09 05:12:09;;;;;;;1.80;0.90;;;4.80;99.70;;;;;;5014517;28;20489;-60
2022/01/09 05:14:37;;;;;;;2.00;0.90;;;4.70;99.70;;;;;;5014274;28;20961;-63
2022/01/09 05:17:04;;;;;;;3.90;1.00;;;4.60;99.70;;;;;;5014261;28;20456;-63
2022/01/09 05:19:33;;;;;;;1.80;0.90;;;4.60;99.70;;;;;;5013856;28;20449;-59
2022/01/09 05:22:00;;;;;;;2.97;1.00;;;4.60;99.70;;;;;;5014224;28;20556;-65
2022/01/09 05:24:27;;;;;;;2.60;1.20;;;4.50;99.70;;;;;;5014219;28;20449;-60
2022/01/09 05:26:54;;;;;;;2.00;1.00;;;4.50;99.70;;;;;;5014284;28;20453;-62
2022/01/09 05:29:21;;;;;;;2.10;1.00;;;4.50;99.70;;;;;;5013650;28;20453;-60
2022/01/09 05:31:49;;;;;;;2.13;1.10;;;4.40;99.70;;;;;;5013885;28;20484;-60
2022/01/09 05:34:16;;;;;;;3.10;1.00;;;4.40;99.70;;;;;;5013962;28;20959;-58
2022/01/09 05:36:44;;;;;;;1.90;1.00;;;4.30;99.70;;;;;;5014072;28;20893;-60
2022/01/09 05:39:11;;;;;;;1.90;1.00;;;4.30;99.70;;;;;;5013216;28;20819;-59
2022/01/09 05:41:40;;;;;;;1.80;0.97;;;4.30;99.70;;;;;;5013848;28;20470;-60
2022/01/09 05:44:07;;;;;;;2.37;0.97;;;4.30;99.70;;;;;;5013822;28;20437;-60
2022/01/09 05:46:33;;;;;;;2.57;1.10;;;4.20;99.70;;;;;;5013827;28;20449;-61
2022/01/09 05:49:01;;;;;;;2.00;1.00;;;4.20;99.70;;;;;;5013253;28;20963;-61
2022/01/09 05:51:28;;;;;;;1.90;1.00;;;4.30;99.70;;;;;;5013764;28;20477;-63
2022/01/09 05:53:55;;;;;;;2.60;1.00;;;4.20;99.70;;;;;;5013829;28;20450;-59
2022/01/09 05:56:22;;;;;;;2.47;1.00;;;4.10;99.70;;;;;;5013732;28;20448;-60
2022/01/09 05:58:48;;;;;;;1.93;1.00;;;4.10;99.70;;;;;;5013131;28;20449;-63
2022/01/09 06:01:15;;;;;;;1.80;0.90;;;4.20;99.70;;;;;;5013591;28;20452;-60
2022/01/09 06:03:42;;;;;;;1.80;0.90;;;4.10;99.70;;;;;;5013586;28;20446;-62
2022/01/09 06:06:10;;;;;;;1.90;1.00;;;4.10;99.70;;;;;;5013186;28;20468;-65
2022/01/09 06:08:36;;;;;;;1.80;0.93;;;4.20;99.70;;;;;;5012913;28;20456;-66
2022/01/09 06:11:03;;;;;;;2.50;1.03;;;4.10;99.70;;;;;;5013311;28;20875;-63
2022/01/09 06:13:30;;;;;;;2.83;1.00;;;4.10;99.70;;;;;;5013590;28;20442;-63
2022/01/09 06:15:57;;;;;;;2.73;1.10;;;4.10;99.70;;;;;;5013409;28;20467;-61
2022/01/09 06:18:23;;;;;;;2.53;1.10;;;4.10;99.70;;;;;;5013006;28;20804;-63
2022/01/09 06:20:50;;;;;;;2.37;1.10;;;4.20;99.70;;;;;;5013266;28;20450;-63
2022/01/09 06:23:20;;;;;;;3.07;1.30;;;4.20;99.70;;;;;;5013266;28;20469;-62
2022/01/09 06:25:47;;;;;;;2.43;1.30;;;4.20;99.70;;;;;;5013061;28;20457;-64
2022/01/09 06:28:14;;;;;;;2.60;1.30;;;4.10;99.70;;;;;;5012751;28;20449;-64
2022/01/09 06:30:41;;;;;;;2.10;1.00;;;4.10;99.70;;;;;;5012991;28;20539;-62
2022/01/09 06:33:08;;;;;;;2.00;1.00;;;4.00;99.70;;;;;;5013189;28;20468;-61
2022/01/09 06:35:34;;;;;;;2.40;1.07;;;3.90;99.70;;;;;;5012931;28;20850;-63
2022/01/09 06:38:01;;;;;;;3.03;1.07;;;4.00;99.70;;;;;;5012649;28;20496;-63
2022/01/09 06:40:29;;;;;;;2.20;1.20;;;4.10;99.70;;;;;;5012087;28;20476;-63
2022/01/09 06:42:56;;;;;;;2.60;1.27;;;4.10;99.70;;;;;;5012890;28;20484;-61
2022/01/09 06:45:24;;;;;;;2.80;1.23;;;4.10;99.70;;;;;;5012757;28;20441;-66
2022/01/09 06:47:52;;;;;;;5.13;2.80;;;4.00;99.70;;;;;;5012729;28;20961;-64
2022/01/09 06:50:18;;;;;;;2.90;1.53;;;4.00;99.70;;;;;;5012688;28;20453;-61
2022/01/09 06:52:45;;;;;;;2.97;1.60;;;4.00;99.70;;;;;;5012557;28;20899;-66
2022/01/09 06:55:12;;;;;;;2.57;1.40;;;4.00;99.70;;;;;;5012400;28;20456;-63
2022/01/09 06:57:40;;;;;;;4.37;2.57;;;4.00;99.70;;;;;;5012533;28;20452;-60
2022/01/09 07:00:10;;;;;;;2.10;1.13;;;4.00;99.70;;;;;;5012390;28;20452;-61
2022/01/09 07:02:37;;;;;;;2.27;1.20;;;3.90;99.70;;;;;;5012280;28;20474;-62
2022/01/09 07:05:04;;;;;;;4.50;2.23;;;3.90;99.70;;;;;;5012608;28;20829;-65
2022/01/09 07:07:31;;;;;;;5.53;3.20;;;3.90;99.70;;;;;;5012568;28;20441;-62
2022/01/09 07:09:58;;;;;;;12.97;5.70;;;4.00;99.70;;;;;;5011940;28;20456;-66
2022/01/09 07:12:25;;;;;;;3.40;1.80;;;4.10;99.70;;;;;;5012159;28;20555;-63
2022/01/09 07:14:53;;;;;;;5.30;2.67;;;3.90;99.70;;;;;;5012384;28;20453;-62
2022/01/09 07:17:19;;;;;;;3.43;1.80;;;3.90;99.70;;;;;;5012389;28;20813;-60
2022/01/09 07:19:46;;;;;;;3.57;1.87;;;3.90;99.70;;;;;;5010822;28;20457;-62
2022/01/09 07:22:13;;;;;;;6.73;3.07;;;3.90;99.70;;;;;;5012151;28;20593;-65
2022/01/09 07:24:40;;;;;;;9.73;3.87;;;3.80;99.70;;;;;;5012078;28;20947;-61
2022/01/09 07:27:07;;;;;;;8.63;3.70;;;3.90;99.70;;;;;;5012102;28;20450;-62
2022/01/09 07:29:34;;;;;;;9.67;3.90;;;3.90;99.70;;;;;;5011735;28;20445;-65
2022/01/09 07:32:02;;;;;;;17.03;6.60;;;3.90;99.70;;;;;;5011919;28;20492;-61
2022/01/09 07:34:29;;;;;;;23.17;7.63;;;3.80;99.70;;;;;;5011952;28;20454;-60
2022/01/09 07:36:55;;;;;;;18.37;6.27;;;3.80;99.70;;;;;;5011867;28;20477;-60
2022/01/09 07:39:22;;;;;;;22.97;8.50;;;3.70;99.70;;;;;;5010735;28;20446;-61
2022/01/09 07:41:50;;;;;;;11.40;4.60;;;3.70;99.70;;;;;;5011642;28;20541;-61
2022/01/09 07:44:16;;;;;;;6.13;3.00;;;3.80;99.70;;;;;;5011951;28;20488;-61
2022/01/09 07:46:43;;;;;;;7.57;2.30;;;3.90;99.70;;;;;;5011693;28;20450;-61
2022/01/09 07:49:11;;;;;;;4.17;1.87;;;3.80;99.70;;;;;;5011467;28;20445;-60
2022/01/09 07:51:38;;;;;;;6.60;3.40;;;3.80;99.70;;;;;;5011579;28;20861;-59
2022/01/09 07:54:04;;;;;;;6.33;2.70;;;3.80;99.70;;;;;;5011744;28;20508;-62
2022/01/09 07:56:31;;;;;;;6.30;2.57;;;3.80;99.70;;;;;;5011533;28;20449;-61
2022/01/09 07:58:58;;;;;;;5.80;2.40;;;3.90;99.70;;;;;;5011228;28;20980;-61
2022/01/09 08:01:25;;;;;;;7.47;3.30;;;3.80;99.70;;;;;;5011222;28;20473;-60
2022/01/09 08:03:51;;;;;;;9.47;2.60;;;3.80;99.70;;;;;;5011734;28;20472;-66
2022/01/09 08:06:19;;;;;;;8.70;3.13;;;3.90;99.70;;;;;;5011531;28;20453;-62
2022/01/09 08:08:46;;;;;;;5.77;2.57;;;4.00;99.70;;;;;;5011071;28;20452;-63
2022/01/09 08:11:13;;;;;;;5.77;1.90;;;4.00;99.70;;;;;;5011218;28;20457;-62
2022/01/09 08:13:39;;;;;;;3.60;1.67;;;4.00;99.70;;;;;;5011539;28;20445;-60
2022/01/09 08:16:06;;;;;;;6.53;1.80;;;3.90;99.70;;;;;;5011347;28;20477;-68
2022/01/09 08:18:33;;;;;;;5.00;2.20;;;3.90;99.70;;;;;;5011043;28;20460;-61
2022/01/09 08:20:59;;;;;;;6.73;2.10;;;3.90;99.70;;;;;;5010855;28;20461;-64
2022/01/09 08:23:27;;;;;;;7.10;2.23;;;3.90;99.70;;;;;;5010871;28;20466;-61
2022/01/09 08:25:54;;;;;;;10.43;2.17;;;4.00;99.70;;;;;;5011194;28;20453;-64
2022/01/09 08:28:21;;;;;;;10.10;2.17;;;4.00;99.70;;;;;;5011643;28;20536;-67
2022/01/09 08:30:47;;;;;;;4.83;1.90;;;4.10;99.70;;;;;;5013666;28;20486;-62
2022/01/09 08:33:14;;;;;;;6.03;2.23;;;4.00;99.70;;;;;;5015281;28;20489;-62
2022/01/09 08:35:41;;;;;;;7.07;1.90;;;4.10;99.70;;;;;;5015267;28;20480;-62
2022/01/09 08:38:08;;;;;;;5.10;2.10;;;4.10;99.70;;;;;;5014542;28;20492;-63
2022/01/09 08:40:36;;;;;;;5.37;1.90;;;4.10;99.70;;;;;;5014752;28;21097;-61
2022/01/09 08:43:03;;;;;;;12.87;4.20;;;4.20;99.70;;;;;;5015121;28;20457;-62
2022/01/09 08:45:29;;;;;;;12.20;3.73;;;4.10;99.70;;;;;;5014982;28;20445;-61
2022/01/09 08:47:56;;;;;;;7.57;2.40;;;4.10;99.70;;;;;;5014293;28;20453;-61
2022/01/09 08:50:23;;;;;;;4.80;2.27;;;4.20;99.70;;;;;;5014974;28;20872;-61
2022/01/09 08:52:50;;;;;;;5.07;1.83;;;4.20;99.70;;;;;;5014568;28;20495;-62
2022/01/09 08:55:17;;;;;;;5.03;2.03;;;4.20;99.70;;;;;;5014790;28;20456;-64
2022/01/09 08:57:45;;;;;;;5.47;1.90;;;4.10;99.70;;;;;;5006809;28;20463;-61
2022/01/09 09:00:13;;;;;;;7.20;1.90;;;4.10;99.70;;;;;;5006049;28;20461;-61
2022/01/09 09:02:41;;;;;;;5.60;2.20;;;4.20;99.70;;;;;;5008954;28;20469;-62
2022/01/09 09:05:08;;;;;;;7.50;1.80;;;4.30;99.70;;;;;;5012300;28;20451;-63
2022/01/09 09:07:35;;;;;;;7.37;1.80;;;4.30;99.70;;;;;;5013582;28;20438;-64
2022/01/09 09:10:04;;;;;;;9.70;1.97;;;4.40;99.70;;;;;;5003824;28;20462;-65
2022/01/09 09:12:32;;;;;;;4.77;1.50;;;4.40;99.70;;;;;;5009459;28;20930;-62
2022/01/09 09:15:00;;;;;;;6.80;1.97;;;4.50;99.70;;;;;;5012315;28;20471;-61
2022/01/09 09:17:28;;;;;;;7.53;2.10;;;4.40;99.70;;;;;;5009317;28;20450;-62
2022/01/09 09:19:54;;;;;;;6.20;1.97;;;4.50;99.70;;;;;;5007386;28;20445;-64
2022/01/09 09:22:21;;;;;;;5.67;2.23;;;4.50;99.70;;;;;;5009894;28;20473;-63
2022/01/09 09:24:48;;;;;;;5.60;1.93;;;4.50;99.70;;;;;;5009122;28;20466;-65
2022/01/09 09:27:15;;;;;;;13.60;2.33;;;4.60;99.70;;;;;;5010555;28;20825;-64
2022/01/09 09:29:42;;;;;;;4.47;1.70;;;4.60;99.70;;;;;;5010475;28;20442;-63
2022/01/09 09:32:10;;;;;;;5.83;2.30;;;4.60;99.70;;;;;;5011894;28;20507;-64
2022/01/09 09:34:39;;;;;;;5.07;2.00;;;4.80;99.70;;;;;;5001733;28;20442;-64
2022/01/09 09:37:06;;;;;;;11.17;1.93;;;4.80;99.70;;;;;;5010101;28;20447;-64
2022/01/09 09:39:33;;;;;;;8.57;1.87;;;4.90;99.70;;;;;;5009074;28;20453;-66
2022/01/09 09:42:01;;;;;;;6.83;2.30;;;4.90;99.70;;;;;;5010492;28;20871;-64
2022/01/09 09:44:28;;;;;;;7.23;1.90;;;4.90;99.70;;;;;;5012251;28;20453;-66
2022/01/09 09:46:54;;;;;;;5.93;2.30;;;5.10;99.70;;;;;;5002054;28;20488;-64
2022/01/09 09:49:23;;;;;;;7.83;1.80;;;5.10;99.70;;;;;;5006306;28;20472;-64
2022/01/09 09:51:49;;;;;;;4.93;1.80;;;5.10;99.70;;;;;;5009568;28;21065;-64
2022/01/09 09:54:16;;;;;;;5.50;1.93;;;5.10;99.70;;;;;;5008982;28;20553;-66
2022/01/09 09:56:43;;;;;;;7.90;2.30;;;5.00;99.70;;;;;;5011660;28;20480;-62
2022/01/09 09:59:09;;;;;;;6.53;3.10;;;5.00;99.70;;;;;;5009950;28;20473;-65
2022/01/09 10:01:37;;;;;;;6.30;2.07;;;5.00;99.70;;;;;;5030376;23;20500;-69
2022/01/09 10:04:06;;;;;;;5.37;2.47;;;4.90;99.70;;;;;;5006348;28;20964;-69
2022/01/09 10:06:40;;;;;;;9.47;2.50;;;4.90;99.70;;;;;;5000094;28;20453;-69
2022/01/09 10:09:08;;;;;;;7.17;2.40;;;5.00;99.70;;;;;;5001195;28;20445;-69
2022/01/09 10:11:44;;;;;;;9.83;2.40;;;5.00;99.70;;;;;;5010009;28;20568;-69
2022/01/09 10:14:15;;;;;;;5.40;2.03;;;5.00;99.70;;;;;;5010490;28;20442;-69
2022/01/09 10:16:42;;;;;;;6.50;2.17;;;5.10;99.70;;;;;;5008884;28;20450;-69
2022/01/09 10:19:09;;;;;;;8.60;2.10;;;5.10;99.70;;;;;;5011171;28;20446;-69
2022/01/09 10:21:35;;;;;;;8.67;3.30;;;5.10;99.70;;;;;;5011475;28;21169;-69
2022/01/09 10:24:06;;;;;;;27.73;8.65;;;5.30;99.70;;;;;;5008052;28;20440;-70
2022/01/09 10:26:35;;;;;;;12.87;3.47;;;5.30;99.70;;;;;;5010963;28;20690;-69
2022/01/09 10:29:03;;;;;;;24.93;7.43;;;5.20;99.70;;;;;;5010987;28;20468;-70
2022/01/09 10:31:30;;;;;;;16.83;4.87;;;5.20;99.70;;;;;;5010097;28;21006;-69
2022/01/09 10:34:02;;;;;;;7.90;2.30;;;5.20;99.70;;;;;;5011297;28;20485;-69
2022/01/09 10:36:37;;;;;;;17.40;4.67;;;5.20;99.70;;;;;;5011245;28;20445;-69
2022/01/09 10:39:09;;;;;;;12.90;4.10;;;5.10;99.70;;;;;;5007325;28;20445;-69
2022/01/09 10:41:47;;;;;;;21.80;6.27;;;5.10;99.70;;;;;;5007843;28;20477;-66
2022/01/09 10:44:15;;;;;;;10.10;2.97;;;5.10;99.70;;;;;;5009794;28;20442;-68
2022/01/09 10:46:42;;;;;;;7.60;2.47;;;5.10;99.70;;;;;;5010968;28;20441;-67
2022/01/09 10:49:13;;;;;;;7.90;2.30;;;5.10;99.70;;;;;;5010768;28;20827;-66
2022/01/09 10:51:41;;;;;;;6.73;2.50;;;5.10;99.70;;;;;;5010169;28;20510;-66
2022/01/09 10:54:09;;;;;;;7.00;2.63;;;5.20;99.70;;;;;;5008391;28;20493;-67
2022/01/09 10:56:35;;;;;;;8.17;2.70;;;5.10;99.70;;;;;;5010064;28;20909;-68
2022/01/09 10:59:02;;;;;;;7.00;2.90;;;5.10;99.70;;;;;;5008497;28;20453;-67
2022/01/09 11:01:30;;;;;;;11.67;3.17;;;5.10;99.70;;;;;;5010873;28;20470;-66
2022/01/09 11:03:59;;;;;;;6.33;2.10;;;5.10;99.70;;;;;;5010873;28;20442;-67
2022/01/09 11:06:28;;;;;;;10.70;2.47;;;5.00;99.70;;;;;;5010260;28;20434;-66
2022/01/09 11:08:56;;;;;;;9.77;2.80;;;5.00;99.70;;;;;;5010638;28;20452;-67
2022/01/09 11:11:29;;;;;;;7.10;2.50;;;5.00;99.70;;;;;;5010764;28;20466;-68
2022/01/09 11:13:57;;;;;;;7.87;2.80;;;5.10;99.70;;;;;;5007986;28;20477;-69
2022/01/09 11:16:35;;;;;;;4.70;1.97;;;5.20;99.70;;;;;;5006358;28;20820;-66
2022/01/09 11:19:06;;;;;;;5.40;1.90;;;5.10;99.70;;;;;;5010480;28;20492;-67
2022/01/09 11:21:33;;;;;;;6.23;2.20;;;5.10;99.70;;;;;;5007737;28;20856;-69
2022/01/09 11:24:12;;;;;;;8.80;2.17;;;5.20;99.70;;;;;;5011574;28;20441;-66
2022/01/09 11:26:49;;;;;;;5.40;2.10;;;5.30;99.70;;;;;;5011776;28;20445;-67
2022/01/09 11:29:23;;;;;;;3.80;1.80;;;5.20;99.70;;;;;;5010825;28;20487;-67
2022/01/09 11:31:55;;;;;;;5.30;2.23;;;5.20;99.70;;;;;;5011557;28;20457;-67
2022/01/09 11:34:30;;;;;;;6.80;2.13;;;5.40;99.70;;;;;;5006285;28;20504;-67
2022/01/09 11:37:05;;;;;;;5.17;1.90;;;5.60;99.70;;;;;;5008510;28;21008;-67
2022/01/09 11:39:35;;;;;;;8.40;1.80;;;5.80;99.70;;;;;;5005629;28;20965;-68
2022/01/09 11:42:09;;;;;;;6.90;2.17;;;5.70;99.70;;;;;;5009767;28;20981;-69
2022/01/09 11:44:44;;;;;;;7.80;2.57;;;5.50;99.70;;;;;;5009064;28;20442;-69
2022/01/09 11:47:10;;;;;;;9.03;1.97;;;5.60;99.70;;;;;;5009082;28;20448;-68
2022/01/09 11:49:39;;;;;;;5.93;1.90;;;5.70;99.70;;;;;;5006944;28;20446;-67
2022/01/09 11:52:08;;;;;;;4.57;1.90;;;5.70;99.70;;;;;;5005694;28;20469;-68
2022/01/09 11:54:51;;;;;;;5.60;2.03;;;5.70;99.70;;;;;;5006439;28;20556;-68
2022/01/09 11:57:35;;;;;;;3.60;1.73;;;5.60;99.70;;;;;;5005790;28;20449;-67
2022/01/09 12:00:04;;;;;;;4.03;2.37;;;5.90;99.70;;;;;;5008564;28;20426;-67
2022/01/09 12:02:33;;;;;;;4.30;1.80;;;6.00;99.70;;;;;;5007113;28;20446;-68
2022/01/09 12:05:02;;;;;;;5.63;2.23;;;5.90;99.70;;;;;;5008926;28;20457;-69
2022/01/09 12:08:06;;;;;;;4.50;1.80;;;5.70;99.70;;;;;;5009826;28;20442;-67
2022/01/09 12:10:37;;;;;;;7.57;2.20;;;5.60;99.70;;;;;;5007606;28;20511;-67
2022/01/09 12:13:07;;;;;;;4.37;2.23;;;5.50;99.70;;;;;;5005621;28;20898;-68
2022/01/09 12:15:37;;;;;;;5.40;1.80;;;5.40;99.70;;;;;;5006761;28;20523;-69
2022/01/09 12:18:04;;;;;;;5.50;1.90;;;5.50;99.70;;;;;;5009265;28;20442;-66
2022/01/09 12:20:37;;;;;;;6.80;2.07;;;5.60;99.70;;;;;;5006805;28;20477;-67
2022/01/09 12:23:05;;;;;;;4.80;2.00;;;5.70;99.70;;;;;;5008459;28;20536;-67
2022/01/09 12:25:52;;;;;;;5.57;1.80;;;5.90;99.70;;;;;;5007174;28;20449;-70
2022/01/09 12:28:26;;;;;;;4.53;1.77;;;5.80;99.70;;;;;;5005262;28;20465;-69
2022/01/09 12:30:56;;;;;;;6.13;1.90;;;5.80;99.70;;;;;;5005462;28;20474;-70
2022/01/09 12:33:49;;;;;;;4.80;1.90;;;5.90;99.70;;;;;;5003088;28;20489;-67
2022/01/09 12:36:18;;;;;;;4.50;1.80;;;5.80;99.70;;;;;;5006360;28;20458;-67
2022/01/09 12:38:47;;;;;;;5.83;2.20;;;5.70;99.70;;;;;;5004608;28;20899;-67
2022/01/09 12:41:16;;;;;;;5.10;1.73;;;5.70;99.70;;;;;;5008371;28;20469;-67
2022/01/09 12:43:45;;;;;;;7.50;1.90;;;5.70;99.70;;;;;;5006087;28;20450;-68
2022/01/09 12:46:14;;;;;;;5.17;1.90;;;5.80;99.70;;;;;;5006224;28;20464;-68
2022/01/09 12:48:41;;;;;;;3.63;1.60;;;5.80;99.70;;;;;;5008852;28;20445;-67
2022/01/09 12:51:10;;;;;;;4.83;1.63;;;5.80;99.70;;;;;;5004318;28;20474;-68
2022/01/09 12:53:39;;;;;;;5.63;1.90;;;5.70;99.70;;;;;;5007181;28;20485;-68
2022/01/09 12:56:08;;;;;;;3.57;1.60;;;5.60;99.70;;;;;;5007760;28;20573;-67
2022/01/09 12:58:38;;;;;;;6.30;2.00;;;5.70;99.70;;;;;;5008019;28;20982;-68
2022/01/09 13:01:16;;;;;;;5.83;2.00;;;5.70;99.70;;;;;;5003098;28;20473;-68
2022/01/09 13:03:45;;;;;;;4.97;1.60;;;5.70;99.70;;;;;;5006532;28;20540;-66